createdAt,value
2017-08-16T00:04:45.724Z,11.77
2017-08-16T00:09:48.961Z,11.17
2017-08-16T00:14:52.123Z,11.87
2017-08-16T00:19:55.320Z,11.27
2017-08-16T00:24:59.273Z,9.20
2017-08-16T00:30:02.481Z,8.97
2017-08-16T00:35:05.678Z,10.70
2017-08-16T00:40:08.869Z,10.00
2017-08-16T00:45:12.823Z,9.27
2017-08-16T00:50:16.102Z,10.27
2017-08-16T00:55:19.289Z,10.57
2017-08-16T01:00:23.245Z,9.47
2017-08-16T01:05:26.438Z,9.20
2017-08-16T01:10:30.385Z,8.90
2017-08-16T01:15:33.566Z,7.60
2017-08-16T01:20:37.525Z,8.17
2017-08-16T01:25:40.732Z,7.53
2017-08-16T01:30:43.901Z,7.17
2017-08-16T01:35:47.911Z,7.47
2017-08-16T01:40:51.878Z,8.30
2017-08-16T01:45:55.081Z,8.70
2017-08-16T01:50:58.297Z,8.37
2017-08-16T01:56:01.485Z,7.20
2017-08-16T02:01:04.674Z,8.17
2017-08-16T02:06:08.618Z,7.77
2017-08-16T02:11:11.810Z,8.33
2017-08-16T02:16:15.766Z,7.23
2017-08-16T02:21:18.950Z,7.23
2017-08-16T02:26:22.118Z,7.57
2017-08-16T02:31:25.300Z,7.37
2017-08-16T02:36:28.470Z,7.57
2017-08-16T02:41:31.657Z,6.93
2017-08-16T02:46:35.610Z,6.83
2017-08-16T02:51:38.839Z,7.77
2017-08-16T02:56:42.001Z,7.03
2017-08-16T03:01:45.953Z,6.67
2017-08-16T03:06:49.108Z,8.67
2017-08-16T03:11:52.265Z,7.37
2017-08-16T03:16:55.440Z,6.93
2017-08-16T03:21:58.610Z,7.57
2017-08-16T03:27:01.835Z,7.10
2017-08-16T03:32:05.021Z,8.40
2017-08-16T03:37:08.182Z,5.60
2017-08-16T03:42:12.140Z,7.60
2017-08-16T03:47:15.295Z,8.10
2017-08-16T03:52:18.454Z,6.53
2017-08-16T03:57:21.638Z,7.80
2017-08-16T04:02:24.807Z,7.10
2017-08-16T04:07:28.049Z,8.70
2017-08-16T04:12:31.969Z,7.20
2017-08-16T04:17:35.133Z,8.27
2017-08-16T04:22:38.301Z,8.77
2017-08-16T04:27:41.478Z,7.30
2017-08-16T04:32:45.417Z,9.30
2017-08-16T04:37:48.630Z,8.03
2017-08-16T04:42:51.834Z,8.50
2017-08-16T04:47:55.010Z,8.60
2017-08-16T04:52:59.059Z,7.83
2017-08-16T04:58:02.237Z,7.33
2017-08-16T05:03:05.410Z,8.33
2017-08-16T05:08:08.585Z,7.63
2017-08-16T05:13:11.724Z,8.70
2017-08-16T05:18:14.897Z,8.50
2017-08-16T05:23:18.057Z,8.70
2017-08-16T05:28:21.239Z,8.03
2017-08-16T05:33:24.402Z,6.93
2017-08-16T05:38:28.343Z,7.60
2017-08-16T05:43:31.539Z,6.73
2017-08-16T05:48:35.475Z,7.77
2017-08-16T05:53:38.655Z,6.00
2017-08-16T05:58:42.749Z,6.67
2017-08-16T06:03:45.938Z,6.40
2017-08-16T06:08:49.121Z,7.00
2017-08-16T06:13:52.293Z,7.17
2017-08-16T06:18:55.478Z,8.23
2017-08-16T06:23:58.649Z,7.40
2017-08-16T06:29:01.822Z,8.10
2017-08-16T06:34:05.001Z,8.70
2017-08-16T06:39:08.167Z,8.70
2017-08-16T06:44:11.358Z,8.50
2017-08-16T06:49:14.533Z,8.37
2017-08-16T06:54:17.722Z,9.10
2017-08-16T06:59:20.980Z,8.17
2017-08-16T07:04:24.905Z,8.20
2017-08-16T07:09:28.079Z,7.57
2017-08-16T07:14:31.261Z,7.90
2017-08-16T07:19:34.450Z,7.13
2017-08-16T07:24:37.656Z,7.30
2017-08-16T07:29:40.864Z,7.63
2017-08-16T07:34:44.037Z,7.10
2017-08-16T07:39:48.010Z,8.33
2017-08-16T07:44:51.217Z,8.20
2017-08-16T07:49:54.397Z,8.30
2017-08-16T07:54:57.581Z,8.40
2017-08-16T08:00:01.574Z,9.83
2017-08-16T08:05:04.824Z,10.23
2017-08-16T08:10:08.770Z,12.27
2017-08-16T08:15:11.970Z,12.20
2017-08-16T08:20:15.147Z,9.83
2017-08-16T08:25:19.098Z,10.10
2017-08-16T08:30:22.268Z,12.13
2017-08-16T08:35:26.213Z,11.97
2017-08-16T08:40:29.391Z,14.83
2017-08-16T08:45:32.608Z,12.90
2017-08-16T08:50:35.825Z,12.47
2017-08-16T08:55:39.789Z,13.87
2017-08-16T09:00:42.969Z,15.07
2017-08-16T09:05:46.163Z,17.23
2017-08-16T09:10:50.106Z,15.03
2017-08-16T09:15:53.300Z,15.43
2017-08-16T09:20:57.604Z,15.63
2017-08-16T09:26:00.804Z,14.70
2017-08-16T09:31:03.985Z,13.20
2017-08-16T09:36:07.236Z,15.73
2017-08-16T09:41:10.425Z,14.33
2017-08-16T09:46:13.645Z,13.83
2017-08-16T09:51:16.831Z,15.27
2017-08-16T09:56:20.292Z,14.07
2017-08-16T10:01:24.275Z,13.97
2017-08-16T10:06:27.457Z,13.60
2017-08-16T10:11:30.690Z,14.70
2017-08-16T10:16:33.908Z,14.87
2017-08-16T10:21:37.210Z,20.57
2017-08-16T10:26:40.386Z,13.60
2017-08-16T10:31:43.596Z,12.80
2017-08-16T10:36:46.807Z,18.70
2017-08-16T10:41:50.031Z,14.33
2017-08-16T10:46:53.248Z,14.60
2017-08-16T10:51:56.459Z,18.03
2017-08-16T10:56:59.632Z,13.87
2017-08-16T11:02:02.834Z,16.10
2017-08-16T11:07:06.049Z,12.90
2017-08-16T11:12:09.248Z,11.30
2017-08-16T11:17:12.498Z,11.60
2017-08-16T11:22:16.486Z,12.93
2017-08-16T11:27:19.698Z,11.87
2017-08-16T11:32:22.902Z,11.53
2017-08-16T11:37:26.130Z,9.67
2017-08-16T11:42:29.318Z,8.40
2017-08-16T11:47:32.502Z,8.00
2017-08-16T11:52:35.694Z,9.10
2017-08-16T11:57:38.930Z,7.50
2017-08-16T12:02:42.111Z,7.03
2017-08-16T12:07:45.322Z,8.23
2017-08-16T12:12:48.511Z,8.30
2017-08-16T12:17:51.708Z,8.40
2017-08-16T12:22:55.658Z,6.90
2017-08-16T12:27:58.845Z,7.20
2017-08-16T12:33:02.056Z,7.10
2017-08-16T12:38:05.992Z,7.37
2017-08-16T12:43:09.562Z,6.97
2017-08-16T12:48:12.733Z,6.83
2017-08-16T12:53:15.923Z,6.77
2017-08-16T12:58:23.167Z,6.60
2017-08-16T13:03:26.376Z,7.00
2017-08-16T13:08:29.561Z,6.73
2017-08-16T13:13:32.786Z,5.80
2017-08-16T13:18:35.977Z,6.17
2017-08-16T13:23:39.294Z,6.37
2017-08-16T13:28:42.506Z,4.60
2017-08-16T13:33:45.789Z,4.57
2017-08-16T13:38:48.981Z,5.13
2017-08-16T13:43:52.159Z,4.43
2017-08-16T13:48:56.254Z,5.90
2017-08-16T13:53:59.474Z,4.73
2017-08-16T13:59:02.659Z,5.60
2017-08-16T14:04:05.862Z,5.33
2017-08-16T14:09:09.052Z,4.67
2017-08-16T14:14:12.262Z,6.10
2017-08-16T14:19:15.446Z,5.40
2017-08-16T14:24:18.633Z,4.57
2017-08-16T14:29:22.681Z,5.10
2017-08-16T14:34:26.628Z,5.67
2017-08-16T14:39:29.821Z,5.40
2017-08-16T14:44:33.922Z,5.23
2017-08-16T14:49:37.845Z,4.40
2017-08-16T14:54:41.778Z,4.27
2017-08-16T14:59:44.976Z,5.00
2017-08-16T15:04:48.934Z,4.80
2017-08-16T15:09:52.143Z,4.33
2017-08-16T15:14:55.413Z,4.87
2017-08-16T15:19:59.342Z,4.30
2017-08-16T15:25:03.327Z,4.50
2017-08-16T15:30:06.538Z,4.90
2017-08-16T15:35:09.769Z,4.83
2017-08-16T15:40:14.061Z,5.53
2017-08-16T15:45:17.305Z,5.00
2017-08-16T15:50:21.271Z,5.30
2017-08-16T15:55:24.756Z,5.40
2017-08-16T16:00:28.859Z,5.17
2017-08-16T16:05:33.011Z,5.30
2017-08-16T16:10:36.974Z,5.80
2017-08-16T16:15:40.196Z,6.07
2017-08-16T16:20:43.403Z,5.13
2017-08-16T16:25:46.621Z,5.60
2017-08-16T16:30:49.811Z,6.13
2017-08-16T16:35:53.037Z,5.90
2017-08-16T16:40:56.233Z,5.53
2017-08-16T16:45:59.417Z,7.27
2017-08-16T16:51:02.613Z,7.07
2017-08-16T16:56:05.822Z,6.70
2017-08-16T17:01:09.006Z,6.90
2017-08-16T17:06:12.949Z,7.07
2017-08-16T17:11:16.124Z,6.20
2017-08-16T17:16:19.334Z,7.40
2017-08-16T17:21:23.278Z,6.87
2017-08-16T17:26:26.605Z,7.50
2017-08-16T17:31:29.827Z,6.60
2017-08-16T17:36:33.057Z,6.27
2017-08-16T17:41:36.256Z,7.90
2017-08-16T17:46:41.106Z,8.50
2017-08-16T17:51:44.352Z,8.00
2017-08-16T17:56:48.396Z,6.03
2017-08-16T18:01:51.628Z,7.33
2017-08-16T18:06:54.859Z,9.60
2017-08-16T18:11:58.033Z,9.87
2017-08-16T18:17:01.246Z,7.77
2017-08-16T18:22:04.465Z,9.10
2017-08-16T18:27:07.665Z,8.20
2017-08-16T18:32:10.881Z,8.80
2017-08-16T18:37:14.096Z,8.73
2017-08-16T18:42:17.300Z,8.93
2017-08-16T18:47:20.530Z,10.40
2017-08-16T18:52:23.719Z,9.77
2017-08-16T18:57:26.926Z,9.13
2017-08-16T19:02:30.141Z,10.37
2017-08-16T19:07:33.382Z,10.37
2017-08-16T19:12:37.362Z,9.50
2017-08-16T19:17:40.553Z,9.83
2017-08-16T19:22:43.758Z,10.37
2017-08-16T19:27:46.977Z,9.63
2017-08-16T19:32:50.184Z,9.57
2017-08-16T19:37:53.377Z,10.30
2017-08-16T19:42:56.573Z,10.50
2017-08-16T19:47:59.730Z,10.50
2017-08-16T19:53:03.712Z,10.63
2017-08-16T19:58:06.936Z,11.20
2017-08-16T20:03:10.122Z,11.60
2017-08-16T20:08:13.325Z,12.43
2017-08-16T20:13:16.546Z,11.57
2017-08-16T20:18:19.827Z,12.30
2017-08-16T20:23:23.052Z,13.60
2017-08-16T20:28:26.267Z,12.23
2017-08-16T20:33:29.459Z,11.27
2017-08-16T20:38:32.669Z,12.20
2017-08-16T20:43:36.059Z,12.20
2017-08-16T20:48:39.989Z,12.67
2017-08-16T20:53:43.207Z,13.00
2017-08-16T20:58:46.413Z,13.00
2017-08-16T21:03:49.643Z,12.93
2017-08-16T21:08:52.879Z,12.13
2017-08-16T21:13:56.094Z,12.30
2017-08-16T21:18:59.272Z,11.23
2017-08-16T21:24:02.488Z,12.53
2017-08-16T21:29:05.656Z,12.07
2017-08-16T21:34:08.840Z,13.13
2017-08-16T21:39:12.049Z,12.20
2017-08-16T21:44:15.248Z,12.97
2017-08-16T21:49:19.275Z,11.67
2017-08-16T21:54:22.455Z,12.70
2017-08-16T21:59:25.634Z,11.57
2017-08-16T22:04:28.848Z,10.70
2017-08-16T22:09:32.081Z,11.90
2017-08-16T22:14:35.279Z,11.67
2017-08-16T22:19:38.480Z,11.87
2017-08-16T22:24:41.669Z,11.60
2017-08-16T22:29:44.881Z,11.77
2017-08-16T22:34:48.088Z,12.17
2017-08-16T22:39:51.285Z,12.80
2017-08-16T22:44:54.481Z,12.70
2017-08-16T22:49:57.671Z,11.73
2017-08-16T22:55:00.860Z,11.20
2017-08-16T23:00:04.796Z,11.13
2017-08-16T23:05:08.014Z,12.53
2017-08-16T23:10:11.198Z,10.73
2017-08-16T23:15:14.351Z,12.17
2017-08-16T23:20:17.807Z,11.40
2017-08-16T23:25:21.819Z,11.60
2017-08-16T23:30:24.993Z,11.60
2017-08-16T23:35:28.201Z,10.70
2017-08-16T23:40:31.471Z,11.43
2017-08-16T23:45:35.447Z,11.57
2017-08-16T23:50:38.652Z,10.73
2017-08-16T23:55:41.842Z,12.50
